Time;durP1;ratioP1;P1;durP2;ratioP2;P2;SDS_P1;SDS_P2;PMS_P1;PMS_P2;Temp;Humidity;BMP_temperature;BMP_pressure;BME280_temperature;BME280_humidity;BME280_pressure;Samples;Min_cycle;Max_cycle;Signal;HPM_P1;HPM_P2
2021/10/29 00:00:55;;;;;;;11.65;5.97;;;12.20;99.90;;;;;;5035777;28;20053;-89
2021/10/29 00:03:22;;;;;;;11.13;6.45;;;12.70;99.90;;;;;;5017354;28;20029;-89
2021/10/29 00:05:48;;;;;;;8.80;6.00;;;12.60;99.90;;;;;;5037548;28;20045;-89
2021/10/29 00:08:14;;;;;;;10.95;5.50;;;12.20;99.90;;;;;;5020731;28;20409;-89
2021/10/29 00:10:40;;;;;;;7.78;5.97;;;12.20;99.90;;;;;;5037001;28;20029;-89
2021/10/29 00:13:05;;;;;;;7.50;5.75;;;12.40;99.90;;;;;;5019959;28;20120;-89
2021/10/29 00:15:32;;;;;;;10.18;6.13;;;12.50;99.90;;;;;;5033349;28;20029;-89
2021/10/29 00:17:57;;;;;;;8.65;6.70;;;12.50;99.90;;;;;;5038265;28;20029;-88
2021/10/29 00:20:23;;;;;;;6.75;5.95;;;12.40;99.90;;;;;;5036967;28;20099;-89
2021/10/29 00:22:49;;;;;;;8.63;6.38;;;12.30;99.90;;;;;;5021637;28;20026;-89
2021/10/29 00:25:15;;;;;;;10.52;5.90;;;12.10;99.90;;;;;;5036643;28;20037;-89
2021/10/29 00:27:41;;;;;;;9.77;6.18;;;12.20;99.90;;;;;;5033211;28;20417;-89
2021/10/29 00:30:07;;;;;;;8.07;6.30;;;12.10;99.90;;;;;;5037064;28;20030;-90
2021/10/29 00:32:33;;;;;;;9.15;6.38;;;12.10;99.90;;;;;;5020455;28;20025;-90
2021/10/29 00:34:59;;;;;;;11.52;7.18;;;12.10;99.90;;;;;;5037404;28;20034;-89
2021/10/29 00:37:24;;;;;;;11.02;6.10;;;12.50;99.90;;;;;;5036983;28;20021;-89
2021/10/29 00:39:50;;;;;;;9.75;6.32;;;12.30;99.90;;;;;;5034197;28;20409;-89
2021/10/29 00:42:16;;;;;;;8.48;6.55;;;12.00;99.90;;;;;;5034838;28;20025;-89
2021/10/29 00:44:41;;;;;;;10.07;7.07;;;12.10;99.90;;;;;;5021252;28;20037;-89
2021/10/29 00:47:07;;;;;;;7.90;6.53;;;12.10;99.90;;;;;;5022612;28;20030;-89
2021/10/29 00:49:33;;;;;;;9.82;7.40;;;12.00;99.90;;;;;;5036300;28;20544;-89
2021/10/29 00:51:59;;;;;;;9.48;6.80;;;12.10;99.90;;;;;;5035204;28;20025;-89
2021/10/29 00:54:24;;;;;;;8.52;6.60;;;11.70;99.90;;;;;;5015874;28;20064;-89
2021/10/29 00:56:50;;;;;;;7.93;5.53;;;11.70;99.90;;;;;;5036481;28;20037;-89
2021/10/29 00:59:18;;;;;;;8.98;6.80;;;11.80;99.90;;;;;;5036210;28;20063;-89
2021/10/29 01:01:45;;;;;;;8.60;6.55;;;11.40;99.90;;;;;;5020803;28;20036;-90
2021/10/29 01:04:10;;;;;;;10.40;6.40;;;11.20;99.90;;;;;;5029262;28;20032;-90
2021/10/29 01:06:36;;;;;;;9.20;6.50;;;11.80;99.90;;;;;;5032440;28;20037;-89
2021/10/29 01:09:02;;;;;;;10.05;6.55;;;11.40;99.90;;;;;;5015491;28;20026;-90
2021/10/29 01:11:29;;;;;;;9.10;6.88;;;11.80;99.90;;;;;;5030907;28;20409;-89
2021/10/29 01:13:55;;;;;;;12.13;6.75;;;10.80;99.90;;;;;;5020854;28;20029;-89
2021/10/29 01:16:21;;;;;;;11.55;7.03;;;11.00;99.90;;;;;;5036041;28;20553;-89
2021/10/29 01:18:47;;;;;;;9.18;7.20;;;11.10;99.90;;;;;;5017223;28;20025;-89
2021/10/29 01:21:14;;;;;;;10.98;7.90;;;11.10;99.90;;;;;;5034580;28;20163;-89
2021/10/29 01:23:39;;;;;;;10.20;8.00;;;11.00;99.90;;;;;;5036327;28;20531;-89
2021/10/29 01:26:08;;;;;;;11.27;8.48;;;11.00;99.90;;;;;;5022683;28;20076;-89
2021/10/29 01:28:34;;;;;;;12.52;8.75;;;11.00;99.90;;;;;;5026469;28;20052;-89
2021/10/29 01:31:01;;;;;;;10.52;8.50;;;11.50;99.90;;;;;;5035046;28;20028;-89
2021/10/29 01:33:28;;;;;;;13.75;8.93;;;11.00;99.90;;;;;;5032528;28;20116;-90
2021/10/29 01:35:54;;;;;;;11.45;9.18;;;11.00;99.90;;;;;;5018673;28;20029;-89
2021/10/29 01:38:20;;;;;;;13.57;9.65;;;11.00;99.90;;;;;;5036245;28;20801;-89
2021/10/29 01:40:46;;;;;;;12.07;8.32;;;11.00;99.90;;;;;;5020203;28;20030;-89
2021/10/29 01:43:11;;;;;;;12.77;8.25;;;11.00;99.90;;;;;;5019650;28;20051;-89
2021/10/29 01:45:37;;;;;;;10.73;7.75;;;11.40;99.90;;;;;;5014351;28;20413;-89
2021/10/29 01:48:03;;;;;;;11.13;7.95;;;11.00;99.90;;;;;;5018579;28;20080;-89
2021/10/29 01:50:28;;;;;;;13.07;8.05;;;11.00;99.90;;;;;;5020630;28;20129;-89
2021/10/29 01:52:54;;;;;;;10.00;7.88;;;11.50;99.90;;;;;;5035431;28;20871;-90
2021/10/29 01:55:20;;;;;;;11.32;8.38;;;10.90;99.90;;;;;;5036283;28;20032;-89
2021/10/29 01:57:45;;;;;;;11.05;8.07;;;11.20;99.90;;;;;;5016858;28;20155;-89
2021/10/29 02:00:12;;;;;;;12.52;9.30;;;10.90;99.90;;;;;;5034552;28;20120;-89
2021/10/29 02:02:40;;;;;;;10.25;8.48;;;10.90;99.90;;;;;;5036433;28;20580;-89
2021/10/29 02:05:06;;;;;;;10.10;8.48;;;10.80;99.90;;;;;;5035983;28;20041;-89
2021/10/29 02:07:31;;;;;;;11.77;8.23;;;10.70;99.90;;;;;;5038185;28;20049;-89
2021/10/29 02:09:57;;;;;;;9.48;8.20;;;10.60;99.90;;;;;;5038774;28;20056;-89
2021/10/29 02:12:23;;;;;;;11.57;8.80;;;10.50;99.90;;;;;;5019231;28;20022;-89
2021/10/29 02:14:48;;;;;;;11.40;9.27;;;10.60;99.90;;;;;;5022393;28;20033;-89
2021/10/29 02:17:14;;;;;;;14.02;10.18;;;10.80;99.90;;;;;;5043947;28;20040;-89
2021/10/29 02:19:40;;;;;;;13.23;9.93;;;10.30;99.90;;;;;;5047082;28;20056;-89
2021/10/29 02:22:05;;;;;;;14.18;9.50;;;10.20;99.90;;;;;;5038144;28;20147;-89
2021/10/29 02:24:31;;;;;;;14.43;9.20;;;10.60;99.90;;;;;;5035368;28;20091;-89
2021/10/29 02:26:57;;;;;;;11.95;9.70;;;10.10;99.90;;;;;;5039774;28;20037;-89
2021/10/29 02:29:22;;;;;;;12.45;9.95;;;10.20;99.90;;;;;;5022920;28;20026;-89
2021/10/29 02:31:48;;;;;;;10.90;9.10;;;10.70;99.90;;;;;;5039181;28;20026;-89
2021/10/29 02:34:14;;;;;;;13.05;9.98;;;10.30;99.90;;;;;;5022572;28;20107;-89
2021/10/29 02:36:39;;;;;;;14.43;10.57;;;10.20;99.90;;;;;;5035529;28;20025;-89
2021/10/29 02:39:05;;;;;;;12.63;9.68;;;10.70;99.90;;;;;;5021469;28;20030;-89
2021/10/29 02:41:31;;;;;;;11.45;8.85;;;10.40;99.90;;;;;;5050187;28;20438;-89
2021/10/29 02:43:56;;;;;;;13.63;9.20;;;10.10;99.90;;;;;;5043787;28;20033;-89
2021/10/29 02:46:22;;;;;;;12.90;9.45;;;10.20;99.90;;;;;;5022246;28;20029;-89
2021/10/29 02:48:48;;;;;;;11.93;8.60;;;10.20;99.90;;;;;;5020029;28;20133;-90
2021/10/29 02:51:13;;;;;;;12.52;9.32;;;10.20;99.90;;;;;;5036891;28;20025;-89
2021/10/29 02:53:39;;;;;;;14.57;9.63;;;10.10;99.90;;;;;;5022452;28;20116;-89
2021/10/29 02:56:07;;;;;;;14.65;9.65;;;10.10;99.90;;;;;;5039161;28;20022;-88
2021/10/29 02:58:34;;;;;;;11.25;8.73;;;10.20;99.90;;;;;;5024257;28;20037;-89
2021/10/29 03:01:00;;;;;;;13.95;8.93;;;10.50;99.90;;;;;;5037075;28;20027;-89
2021/10/29 03:03:26;;;;;;;12.95;9.27;;;10.70;99.90;;;;;;5035516;28;20025;-89
2021/10/29 03:05:51;;;;;;;10.82;9.05;;;10.50;99.90;;;;;;5038704;28;20051;-89
2021/10/29 03:08:17;;;;;;;10.85;8.98;;;10.50;99.90;;;;;;5038499;28;20406;-89
2021/10/29 03:10:43;;;;;;;11.70;9.32;;;10.50;99.90;;;;;;5039426;28;20029;-89
2021/10/29 03:13:08;;;;;;;11.65;9.00;;;10.10;99.90;;;;;;5023381;28;20404;-89
2021/10/29 03:15:35;;;;;;;12.00;9.05;;;10.40;99.90;;;;;;5033867;28;20041;-89
2021/10/29 03:18:00;;;;;;;10.93;9.55;;;10.10;99.90;;;;;;5038209;28;20026;-89
2021/10/29 03:20:26;;;;;;;12.75;10.30;;;10.40;99.90;;;;;;5038700;28;20053;-89
2021/10/29 03:22:52;;;;;;;15.82;10.43;;;10.30;99.90;;;;;;5038066;28;20401;-89
2021/10/29 03:25:18;;;;;;;14.00;10.45;;;10.10;99.90;;;;;;5038503;28;20123;-90
2021/10/29 03:27:44;;;;;;;13.88;10.90;;;10.60;99.90;;;;;;5034616;28;20026;-89
2021/10/29 03:30:11;;;;;;;15.02;10.40;;;10.50;99.90;;;;;;5037309;28;20032;-89
2021/10/29 03:32:37;;;;;;;12.25;9.68;;;10.10;99.90;;;;;;5038944;28;20434;-89
2021/10/29 03:35:03;;;;;;;12.57;9.90;;;10.00;99.90;;;;;;5045597;28;20072;-90
2021/10/29 03:38:01;;;;;;;14.18;10.15;;;10.10;99.90;;;;;;5047100;28;20043;-89
2021/10/29 03:45:37;;;;;;;16.42;10.52;;;9.90;99.90;;;;;;5033782;28;20123;-89
2021/10/29 03:48:04;;;;;;;13.02;10.55;;;9.90;99.90;;;;;;5038220;28;20485;-90
2021/10/29 03:50:33;;;;;;;16.67;10.93;;;9.90;99.90;;;;;;5037271;28;20044;-89
2021/10/29 03:53:07;;;;;;;13.60;10.63;;;10.10;99.90;;;;;;5038073;28;20067;-89
2021/10/29 03:55:39;;;;;;;12.45;10.43;;;10.10;99.90;;;;;;5021067;28;20030;-89
2021/10/29 03:58:05;;;;;;;17.10;11.27;;;10.20;99.90;;;;;;5023017;28;20139;-90
2021/10/29 04:00:32;;;;;;;15.38;10.93;;;10.20;99.90;;;;;;5033539;28;20059;-89
2021/10/29 04:03:03;;;;;;;14.60;10.88;;;10.10;99.90;;;;;;5037861;28;20024;-89
2021/10/29 04:05:33;;;;;;;14.80;11.48;;;9.70;99.90;;;;;;5021060;28;20456;-89
2021/10/29 04:07:59;;;;;;;16.10;10.95;;;9.60;99.90;;;;;;5037635;28;20034;-89
2021/10/29 04:10:27;;;;;;;16.00;11.02;;;9.70;99.90;;;;;;5021169;28;20025;-89
2021/10/29 04:12:58;;;;;;;13.60;10.68;;;10.10;99.90;;;;;;5032866;28;20548;-89
2021/10/29 04:15:24;;;;;;;14.80;10.90;;;9.90;99.90;;;;;;5031019;28;20021;-88
2021/10/29 04:17:50;;;;;;;13.43;11.07;;;9.60;99.90;;;;;;5019674;28;20025;-90
2021/10/29 04:20:16;;;;;;;14.63;11.00;;;9.60;99.90;;;;;;5020718;28;20036;-89
2021/10/29 04:22:42;;;;;;;14.05;10.88;;;10.10;99.90;;;;;;5036931;28;20390;-90
2021/10/29 04:25:09;;;;;;;16.25;10.95;;;9.60;99.90;;;;;;5036503;28;20044;-90
2021/10/29 04:27:43;;;;;;;15.43;10.85;;;9.60;99.90;;;;;;5017160;28;20454;-89
2021/10/29 04:30:14;;;;;;;11.90;9.52;;;9.60;99.90;;;;;;5036003;28;20053;-90
2021/10/29 04:32:39;;;;;;;13.45;9.88;;;9.50;99.90;;;;;;5037115;28;20029;-89
2021/10/29 04:35:06;;;;;;;13.80;10.15;;;9.60;99.90;;;;;;5029300;28;20047;-89
2021/10/29 04:37:31;;;;;;;15.07;10.32;;;9.60;99.90;;;;;;5048866;28;20037;-89
2021/10/29 04:39:57;;;;;;;13.82;10.23;;;9.50;99.90;;;;;;5033494;28;20037;-90
2021/10/29 04:42:23;;;;;;;14.15;10.38;;;9.50;99.90;;;;;;5016697;28;20022;-89
2021/10/29 04:44:48;;;;;;;14.38;10.95;;;9.50;99.90;;;;;;5033545;28;20086;-89
2021/10/29 04:47:14;;;;;;;15.57;10.57;;;10.00;99.90;;;;;;5043281;28;20036;-89
2021/10/29 04:49:40;;;;;;;13.20;10.70;;;10.10;99.90;;;;;;5026214;28;20117;-89
2021/10/29 04:52:06;;;;;;;12.50;10.60;;;10.00;99.90;;;;;;5020094;28;20504;-89
2021/10/29 04:54:32;;;;;;;15.45;10.82;;;9.50;99.90;;;;;;5031174;28;20025;-89
2021/10/29 04:56:58;;;;;;;14.02;10.05;;;9.60;99.90;;;;;;5052820;28;20541;-89
2021/10/29 04:59:24;;;;;;;14.13;10.77;;;9.50;99.90;;;;;;5044320;28;20429;-89
2021/10/29 05:01:49;;;;;;;15.68;10.57;;;10.00;99.90;;;;;;5024595;28;20037;-89
2021/10/29 05:04:16;;;;;;;14.93;10.48;;;9.40;99.90;;;;;;5020332;28;20032;-89
2021/10/29 05:06:42;;;;;;;13.45;10.13;;;9.40;99.90;;;;;;5048037;28;20065;-89
2021/10/29 05:09:08;;;;;;;13.38;9.82;;;9.40;99.90;;;;;;5049025;28;20473;-89
2021/10/29 05:11:34;;;;;;;13.05;9.88;;;9.90;99.90;;;;;;5044928;28;20039;-89
2021/10/29 05:14:00;;;;;;;12.38;10.00;;;9.30;99.90;;;;;;5037340;28;20029;-90
2021/10/29 05:16:25;;;;;;;13.38;10.25;;;9.30;99.90;;;;;;5019025;28;20020;-89
2021/10/29 05:18:51;;;;;;;15.45;11.13;;;9.20;99.90;;;;;;5032324;28;20043;-90
2021/10/29 05:21:16;;;;;;;17.73;11.75;;;9.30;99.90;;;;;;5031343;28;20520;-89
2021/10/29 05:23:42;;;;;;;16.33;11.55;;;9.20;99.90;;;;;;5037141;28;20107;-89
2021/10/29 05:26:08;;;;;;;14.60;11.43;;;9.90;99.90;;;;;;5039793;28;20037;-89
2021/10/29 05:28:34;;;;;;;15.15;11.32;;;9.30;99.90;;;;;;5027350;28;20021;-89
2021/10/29 05:30:59;;;;;;;16.35;12.65;;;9.40;99.90;;;;;;5047680;28;20047;-89
2021/10/29 05:33:25;;;;;;;16.88;12.13;;;9.20;99.90;;;;;;5049551;28;20024;-89
2021/10/29 05:35:51;;;;;;;16.38;11.80;;;9.20;99.90;;;;;;5037132;28;20099;-88
2021/10/29 05:38:16;;;;;;;15.82;11.13;;;9.80;99.90;;;;;;5037154;28;20108;-89
2021/10/29 05:40:42;;;;;;;16.85;11.90;;;9.80;99.90;;;;;;5019745;28;20032;-89
2021/10/29 05:43:08;;;;;;;15.75;11.30;;;9.90;99.90;;;;;;5041091;28;20045;-89
2021/10/29 05:45:33;;;;;;;17.20;12.23;;;9.70;99.90;;;;;;5051937;28;20037;-89
2021/10/29 05:48:05;;;;;;;16.17;12.38;;;9.70;99.90;;;;;;5041502;28;20022;-89
2021/10/29 05:50:31;;;;;;;16.38;12.30;;;9.20;99.90;;;;;;5040254;28;20517;-88
2021/10/29 05:52:59;;;;;;;17.58;12.57;;;9.80;99.90;;;;;;5042537;28;20067;-89
2021/10/29 05:55:24;;;;;;;20.05;12.38;;;9.50;99.90;;;;;;5049179;28;20029;-89
2021/10/29 05:57:52;;;;;;;15.77;11.65;;;9.60;99.90;;;;;;5021165;28;20044;-89
2021/10/29 06:00:21;;;;;;;16.42;12.18;;;9.70;99.90;;;;;;5019001;28;20033;-89
2021/10/29 06:02:47;;;;;;;16.85;12.20;;;9.40;99.90;;;;;;5054371;28;20032;-88
2021/10/29 06:05:14;;;;;;;15.60;12.43;;;9.70;99.90;;;;;;5041468;28;20512;-86
2021/10/29 06:07:40;;;;;;;14.68;12.00;;;9.10;99.90;;;;;;5038704;28;20394;-86
2021/10/29 06:10:08;;;;;;;16.27;12.32;;;9.50;99.90;;;;;;5021763;28;20052;-86
2021/10/29 06:12:38;;;;;;;19.40;13.30;;;9.10;99.90;;;;;;5034530;28;20041;-84
2021/10/29 06:15:06;;;;;;;19.92;13.43;;;9.10;99.90;;;;;;5046394;28;20021;-85
2021/10/29 06:17:33;;;;;;;17.45;12.75;;;9.10;99.90;;;;;;5038989;28;20029;-88
2021/10/29 06:19:59;;;;;;;16.70;12.90;;;9.70;99.90;;;;;;5038779;28;20478;-87
2021/10/29 06:22:37;;;;;;;18.58;13.93;;;9.70;99.90;;;;;;5038554;28;20090;-87
2021/10/29 06:25:11;;;;;;;19.10;14.10;;;9.60;99.90;;;;;;5038346;28;20041;-87
2021/10/29 06:30:03;;;;;;;19.52;13.98;;;9.30;99.90;;;;;;5039117;28;20030;-87
2021/10/29 06:32:29;;;;;;;18.50;14.15;;;9.30;99.90;;;;;;5038954;28;20397;-88
2021/10/29 06:34:55;;;;;;;19.25;13.35;;;9.30;99.90;;;;;;5039065;28;20561;-87
2021/10/29 06:37:21;;;;;;;20.38;13.27;;;9.60;99.90;;;;;;5022154;28;20128;-88
2021/10/29 06:39:48;;;;;;;19.05;13.00;;;9.40;99.90;;;;;;5018954;28;20063;-88
2021/10/29 06:42:27;;;;;;;20.33;13.77;;;10.00;99.90;;;;;;5037390;28;20032;-87
2021/10/29 06:45:21;;;;;;;20.00;13.30;;;9.50;99.90;;;;;;5037587;28;20033;-88
2021/10/29 06:47:52;;;;;;;18.10;13.57;;;9.90;99.90;;;;;;5038099;28;20069;-88
2021/10/29 07:01:23;;;;;;;22.15;13.82;;;9.90;99.90;;;;;;5032277;28;20063;-87
2021/10/29 07:41:43;;;;;;;18.30;14.48;;;11.50;99.90;;;;;;4972360;28;20045;-92
2021/10/29 07:44:25;;;;;;;22.00;14.77;;;14.00;99.90;;;;;;4973767;28;20065;-88
2021/10/29 07:46:51;;;;;;;19.85;13.65;;;15.80;99.90;;;;;;5015832;28;20037;-89
2021/10/29 07:49:17;;;;;;;19.50;13.07;;;16.50;99.90;;;;;;5047744;28;20025;-88
2021/10/29 07:51:43;;;;;;;18.30;13.15;;;17.90;99.90;;;;;;5033579;28;20079;-86
2021/10/29 07:54:09;;;;;;;19.85;12.40;;;20.60;99.90;;;;;;5037390;28;20420;-92
2021/10/29 07:56:35;;;;;;;16.70;13.00;;;20.80;99.90;;;;;;5037483;28;20088;-87
2021/10/29 07:59:01;;;;;;;17.52;12.80;;;22.30;99.90;;;;;;5036997;28;20025;-88
2021/10/29 08:01:27;;;;;;;18.75;12.80;;;23.80;99.90;;;;;;5020529;28;20388;-85
2021/10/29 08:03:52;;;;;;;16.65;12.85;;;25.10;99.90;;;;;;5034770;28;20026;-85
2021/10/29 08:06:18;;;;;;;16.13;12.13;;;26.70;99.90;;;;;;5034460;28;20037;-86
2021/10/29 08:08:46;;;;;;;20.65;13.75;;;27.40;99.90;;;;;;5037225;28;20037;-85
2021/10/29 08:11:14;;;;;;;16.30;12.55;;;26.70;99.90;;;;;;5019641;28;20030;-86
2021/10/29 08:13:39;;;;;;;18.15;12.20;;;27.30;99.90;;;;;;5036318;28;20021;-85
2021/10/29 08:16:05;;;;;;;19.13;11.43;;;28.50;99.90;;;;;;5035839;28;20028;-86
2021/10/29 08:18:33;;;;;;;12.82;11.25;;;28.40;99.90;;;;;;5032600;28;20147;-86
2021/10/29 08:20:59;;;;;;;18.10;12.27;;;28.20;99.90;;;;;;5037729;28;20021;-85
2021/10/29 08:23:25;;;;;;;17.13;12.18;;;28.90;99.90;;;;;;5036253;28;20029;-85
2021/10/29 08:25:51;;;;;;;16.15;13.05;;;30.20;99.90;;;;;;5035933;28;20104;-85
2021/10/29 08:28:16;;;;;;;17.52;12.88;;;29.80;99.90;;;;;;5036165;28;20070;-86
2021/10/29 08:30:42;;;;;;;17.52;12.77;;;29.40;99.90;;;;;;5032417;28;20116;-85
2021/10/29 08:33:08;;;;;;;17.75;12.25;;;30.10;99.90;;;;;;5036149;28;20028;-85
2021/10/29 08:35:33;;;;;;;17.73;12.80;;;29.70;99.90;;;;;;5036558;28;20025;-85
2021/10/29 08:37:59;;;;;;;15.65;12.25;;;30.10;99.90;;;;;;5036297;28;20465;-86
2021/10/29 08:40:25;;;;;;;16.27;12.70;;;29.60;99.90;;;;;;5035592;28;20028;-85
2021/10/29 08:42:52;;;;;;;16.48;10.95;;;29.70;99.90;;;;;;5034079;28;20053;-85
2021/10/29 08:45:18;;;;;;;16.70;11.48;;;29.90;99.90;;;;;;5034205;28;20041;-85
2021/10/29 08:47:45;;;;;;;18.55;12.18;;;30.50;99.90;;;;;;5036129;28;20393;-86
2021/10/29 08:50:17;;;;;;;14.65;11.27;;;30.90;99.90;;;;;;5035770;28;20083;-85
2021/10/29 08:52:45;;;;;;;14.05;12.02;;;30.90;99.90;;;;;;5035780;28;20029;-86
2021/10/29 08:55:12;;;;;;;14.13;11.55;;;32.30;99.90;;;;;;5035222;28;20124;-85
2021/10/29 08:57:39;;;;;;;19.80;13.35;;;31.40;99.90;;;;;;5031967;28;20013;-85
2021/10/29 09:00:14;;;;;;;22.80;12.68;;;31.60;99.90;;;;;;5025476;28;20057;-85
2021/10/29 09:02:56;;;;;;;58.33;14.23;;;31.60;99.90;;;;;;5036524;28;20044;-85
2021/10/29 09:05:28;;;;;;;35.15;13.15;;;32.70;99.90;;;;;;5035409;28;20044;-85
2021/10/29 09:08:17;;;;;;;23.63;12.55;;;32.50;99.90;;;;;;5035103;28;20432;-85
2021/10/29 09:33:01;;;;;;;9.13;7.00;;;35.00;99.90;;;;;;5035915;28;20040;-83
2021/10/29 09:35:35;;;;;;;9.82;6.63;;;35.20;99.90;;;;;;5035108;28;20046;-83
2021/10/29 09:38:10;;;;;;;6.28;5.65;;;36.10;99.90;;;;;;5035294;28;20026;-83
2021/10/29 09:40:39;;;;;;;11.55;7.40;;;36.50;99.90;;;;;;5019239;28;20112;-83
2021/10/29 09:43:12;;;;;;;12.45;9.38;;;36.20;99.90;;;;;;5034657;28;20029;-83
2021/10/29 09:45:46;;;;;;;8.57;6.95;;;37.60;99.90;;;;;;5015351;28;20072;-83
2021/10/29 09:49:05;;;;;;;7.75;5.18;;;36.50;99.90;;;;;;5034333;28;20428;-83
2021/10/29 09:51:10;;;;;;;8.68;5.97;;;35.90;99.90;;;;;;5035280;28;20029;-83
2021/10/29 09:58:46;;;;;;;4.35;3.08;;;37.00;99.90;;;;;;5034869;28;20508;-83
2021/10/29 10:01:13;;;;;;;7.60;3.05;;;38.50;99.90;;;;;;5034886;28;20043;-82
2021/10/29 10:03:40;;;;;;;5.60;2.60;;;38.10;99.90;;;;;;5031115;28;20082;-83
2021/10/29 10:06:06;;;;;;;5.03;2.80;;;37.20;99.90;;;;;;5034812;28;20037;-83
2021/10/29 10:08:34;;;;;;;6.03;2.70;;;36.10;99.90;;;;;;5034936;28;20033;-82
2021/10/29 10:11:00;;;;;;;4.05;3.05;;;36.20;99.90;;;;;;5034723;28;20136;-83
2021/10/29 10:13:27;;;;;;;4.32;2.40;;;35.90;99.90;;;;;;5034964;28;20047;-83
2021/10/29 10:15:56;;;;;;;4.85;3.20;;;32.80;99.90;;;;;;5032472;28;20026;-83
2021/10/29 10:18:24;;;;;;;3.05;2.50;;;32.80;99.90;;;;;;5033023;28;20080;-82
2021/10/29 10:20:51;;;;;;;2.72;2.28;;;31.10;99.90;;;;;;5033025;28;20026;-83
2021/10/29 10:23:27;;;;;;;4.60;2.13;;;30.90;99.90;;;;;;5034851;28;20112;-82
2021/10/29 10:40:13;;;;;;;2.97;2.00;;;27.70;99.90;;;;;;5037143;28;20029;-83
2021/10/29 10:42:39;;;;;;;6.82;2.35;;;28.00;99.90;;;;;;5048078;28;20032;-83
2021/10/29 10:45:16;;;;;;;3.25;1.77;;;27.10;99.90;;;;;;5045835;28;20033;-83
2021/10/29 10:47:45;;;;;;;5.40;2.33;;;26.60;99.90;;;;;;5038529;28;20048;-83
2021/10/29 10:50:20;;;;;;;2.97;2.20;;;25.70;99.90;;;;;;5037917;28;20025;-83
2021/10/29 10:53:47;;;;;;;3.33;1.90;;;25.10;99.90;;;;;;5038363;28;20034;-85
2021/10/29 10:56:02;;;;;;;4.90;2.17;;;24.50;99.90;;;;;;5029742;28;20034;-85
2021/10/29 10:58:39;;;;;;;3.53;2.08;;;23.10;99.90;;;;;;5038118;28;20485;-86
2021/10/29 11:01:40;;;;;;;5.07;2.20;;;22.60;99.90;;;;;;5037491;28;20112;-85
2021/10/29 11:07:49;;;;;;;5.00;3.08;;;23.00;99.90;;;;;;5020114;28;20046;-85
2021/10/29 11:12:42;;;;;;;2.88;2.08;;;22.80;99.90;;;;;;5034931;28;20390;-85
2021/10/29 11:15:12;;;;;;;5.25;2.10;;;22.00;99.90;;;;;;5045748;28;20029;-85
2021/10/29 11:17:53;;;;;;;3.40;2.13;;;21.90;99.90;;;;;;5037502;28;20398;-85
2021/10/29 11:20:53;;;;;;;5.40;2.13;;;22.00;99.90;;;;;;5037257;28;20026;-85
2021/10/29 11:23:19;;;;;;;3.30;1.92;;;21.60;99.90;;;;;;4976854;28;20451;-85
2021/10/29 11:25:50;;;;;;;3.58;2.13;;;21.70;99.90;;;;;;4976637;28;20050;-84
2021/10/29 11:28:17;;;;;;;3.85;2.20;;;21.90;99.90;;;;;;4974534;28;20042;-85
2021/10/29 11:30:46;;;;;;;3.65;1.90;;;22.10;99.90;;;;;;4972538;28;20265;-85
2021/10/29 11:33:14;;;;;;;2.55;1.80;;;21.50;99.90;;;;;;4975079;28;20593;-84
2021/10/29 11:35:41;;;;;;;2.17;1.85;;;22.50;99.90;;;;;;4976359;28;20027;-85
2021/10/29 11:38:09;;;;;;;3.53;2.20;;;22.90;99.90;;;;;;4977261;28;20031;-85
2021/10/29 11:40:35;;;;;;;4.60;1.63;;;22.40;99.90;;;;;;4975552;28;20111;-85
2021/10/29 11:43:01;;;;;;;2.65;2.00;;;22.40;99.90;;;;;;4974841;28;20109;-85
2021/10/29 11:45:35;;;;;;;3.15;2.38;;;23.50;99.90;;;;;;4972987;28;20051;-85
2021/10/29 11:48:03;;;;;;;2.45;2.03;;;26.20;99.90;;;;;;4977100;28;20178;-85
2021/10/29 11:50:29;;;;;;;3.08;2.00;;;25.00;99.90;;;;;;4975781;28;20042;-85
2021/10/29 11:52:55;;;;;;;4.85;2.15;;;25.50;99.90;;;;;;4975638;28;20376;-84
2021/10/29 11:55:36;;;;;;;4.20;2.10;;;26.50;99.90;;;;;;4975800;28;20077;-84
2021/10/29 12:09:25;;;;;;;4.75;2.10;;;28.90;99.90;;;;;;4961391;28;20750;-85
2021/10/29 12:11:55;;;;;;;3.22;2.05;;;29.30;99.90;;;;;;4976147;28;20066;-85
2021/10/29 12:14:27;;;;;;;4.47;2.20;;;29.90;99.90;;;;;;4959973;28;20454;-85
2021/10/29 12:16:55;;;;;;;3.72;1.77;;;31.20;99.90;;;;;;4974874;28;20026;-85
2021/10/29 12:19:23;;;;;;;3.63;1.90;;;29.50;99.90;;;;;;4975250;28;20065;-85
2021/10/29 12:22:06;;;;;;;5.72;2.10;;;29.00;99.90;;;;;;4972662;28;20034;-85
2021/10/29 12:24:33;;;;;;;3.83;2.05;;;30.40;99.90;;;;;;4971982;28;20588;-85
2021/10/29 12:27:02;;;;;;;5.18;2.03;;;30.70;99.90;;;;;;4968001;28;20038;-85
2021/10/29 12:29:32;;;;;;;2.25;1.80;;;30.30;99.90;;;;;;4975074;28;20026;-85
2021/10/29 12:36:39;;;;;;;3.75;1.98;;;29.80;99.90;;;;;;4974997;28;20074;-85
2021/10/29 12:38:01;;;;;;;2.30;1.70;;;29.60;99.90;;;;;;4974859;28;20029;-85
2021/10/29 12:52:22;;;;;;;2.65;1.70;;;29.30;99.90;;;;;;5015545;28;20445;-85
2021/10/29 13:03:22;;;;;;;2.53;1.77;;;29.20;99.90;;;;;;5044780;28;20091;-85
2021/10/29 13:05:55;;;;;;;3.58;1.70;;;29.30;99.90;;;;;;5034005;28;20068;-84
2021/10/29 13:08:23;;;;;;;3.80;1.90;;;29.40;99.90;;;;;;5035465;28;20041;-85
2021/10/29 13:10:54;;;;;;;5.57;1.63;;;28.50;99.90;;;;;;5035426;28;20030;-85
2021/10/29 13:13:29;;;;;;;3.42;1.77;;;26.90;99.90;;;;;;5035549;28;20028;-85
2021/10/29 13:16:02;;;;;;;3.80;1.48;;;26.70;99.90;;;;;;5033268;28;20025;-85
2021/10/29 13:18:38;;;;;;;7.47;1.80;;;25.90;99.90;;;;;;5032519;28;20036;-84
2021/10/29 13:28:49;;;;;;;4.78;1.70;;;28.30;99.90;;;;;;5034469;28;20405;-85
2021/10/29 13:34:26;;;;;;;5.30;2.10;;;28.20;99.90;;;;;;5034439;28;20051;-84
2021/10/29 13:37:14;;;;;;;2.72;1.95;;;28.50;99.90;;;;;;5018696;28;20033;-85
2021/10/29 14:30:40;;;;;;;2.85;2.00;;;26.90;99.90;;;;;;5048529;28;20036;-85
2021/10/29 14:33:10;;;;;;;2.85;2.03;;;26.90;99.90;;;;;;5038803;28;20505;-85
2021/10/29 14:35:43;;;;;;;2.42;1.90;;;26.50;99.90;;;;;;5039390;28;20120;-85
2021/10/29 14:38:17;;;;;;;4.45;1.90;;;26.20;99.90;;;;;;5039080;28;20025;-85
2021/10/29 14:41:00;;;;;;;4.32;2.30;;;26.50;99.90;;;;;;5038259;28;20051;-85
2021/10/29 14:43:35;;;;;;;4.95;2.28;;;26.20;99.90;;;;;;5037996;28;20021;-85
2021/10/29 15:02:17;;;;;;;3.45;2.20;;;23.80;99.90;;;;;;5031681;28;20082;-84
2021/10/29 15:16:02;;;;;;;4.07;2.20;;;24.30;99.90;;;;;;5020464;28;20063;-87
2021/10/29 15:32:20;;;;;;;3.72;2.53;;;23.10;99.90;;;;;;4963841;28;20442;-85
2021/10/29 15:45:44;;;;;;;3.78;2.72;;;22.40;99.90;;;;;;4969419;28;20500;-83
2021/10/29 15:48:40;;;;;;;5.55;2.50;;;21.90;99.90;;;;;;4968153;28;20154;-84
2021/10/29 15:50:56;;;;;;;5.00;2.78;;;21.90;99.90;;;;;;4970457;28;20559;-83
2021/10/29 15:53:21;;;;;;;5.70;2.53;;;21.50;99.90;;;;;;4969724;28;20046;-82
2021/10/29 15:55:56;;;;;;;4.20;2.55;;;21.10;99.90;;;;;;4969759;28;20077;-82
2021/10/29 16:16:57;;;;;;;4.07;2.40;;;20.30;99.90;;;;;;4971465;28;20129;-84
2021/10/29 16:17:41;;;;;;;5.43;3.15;;;19.10;99.90;;;;;;4970881;28;20521;-83
2021/10/29 16:20:07;;;;;;;4.82;2.35;;;19.10;99.90;;;;;;4970965;28;20039;-83
2021/10/29 16:22:35;;;;;;;3.97;2.60;;;19.00;99.90;;;;;;4970781;28;20451;-83
2021/10/29 16:28:04;;;;;;;5.53;2.33;;;18.90;99.90;;;;;;4970796;28;20200;-84
2021/10/29 16:30:24;;;;;;;3.83;2.60;;;18.90;99.90;;;;;;4967876;28;20431;-84
2021/10/29 16:33:03;;;;;;;6.28;2.63;;;18.80;99.90;;;;;;4969533;28;20447;-84
2021/10/29 16:35:39;;;;;;;2.95;2.40;;;18.70;99.90;;;;;;4970978;28;20481;-83
2021/10/29 16:38:09;;;;;;;7.95;2.78;;;18.60;99.90;;;;;;4970812;28;20041;-83
2021/10/29 16:40:36;;;;;;;5.35;2.67;;;18.50;99.90;;;;;;5019704;28;20044;-83
2021/10/29 16:43:02;;;;;;;4.10;2.50;;;18.50;99.90;;;;;;5027987;28;20079;-84
2021/10/29 16:45:28;;;;;;;5.90;2.65;;;18.30;99.90;;;;;;5030697;28;20033;-84
2021/10/29 16:47:54;;;;;;;5.88;2.55;;;18.20;99.90;;;;;;5041556;28;20043;-84
2021/10/29 16:50:21;;;;;;;5.60;2.78;;;18.20;99.90;;;;;;5030059;28;20036;-83
2021/10/29 16:52:48;;;;;;;3.45;2.50;;;18.20;99.90;;;;;;5029708;28;20025;-84
2021/10/29 16:55:14;;;;;;;2.67;2.28;;;18.20;99.90;;;;;;5011120;28;20029;-84
2021/10/29 16:57:40;;;;;;;3.83;2.78;;;18.10;99.90;;;;;;5028777;28;20021;-84
2021/10/29 17:00:09;;;;;;;5.30;2.95;;;18.00;99.90;;;;;;5031809;28;20029;-84
2021/10/29 17:02:35;;;;;;;4.75;2.83;;;18.00;99.90;;;;;;5029224;28;20518;-83
2021/10/29 17:05:01;;;;;;;4.85;3.08;;;17.90;99.90;;;;;;5028573;28;20038;-83
2021/10/29 17:07:26;;;;;;;4.57;2.85;;;17.80;99.90;;;;;;5027876;28;20041;-84
2021/10/29 17:09:53;;;;;;;4.68;2.70;;;17.70;99.90;;;;;;5028561;28;20061;-84
2021/10/29 17:12:21;;;;;;;4.95;3.00;;;17.70;99.90;;;;;;5031147;28;20044;-83
2021/10/29 17:14:47;;;;;;;3.33;2.60;;;17.60;99.90;;;;;;5031866;28;20492;-84
2021/10/29 17:17:13;;;;;;;3.60;2.40;;;17.50;99.90;;;;;;5028340;28;20545;-83